Time;durP1;ratioP1;P1;durP2;ratioP2;P2;SDS_P1;SDS_P2;PMS_P1;PMS_P2;Temp;Humidity;BMP_temperature;BMP_pressure;BME280_temperature;BME280_humidity;BME280_pressure;Samples;Min_cycle;Max_cycle;Signal;HPM_P1;HPM_P2
2022/01/07 00:02:27;;;;;;;;;;;;;;;-5.87;79.27;95996.31;6374735;27;19923;-62
2022/01/07 00:05:30;;;;;;;;;;;;;;;-5.86;79.62;95992.00;6374580;27;19928;-63
2022/01/07 00:08:31;;;;;;;;;;;;;;;-5.75;79.42;96002.09;6373589;27;19963;-61
2022/01/07 00:11:32;;;;;;;;;;;;;;;-5.67;79.33;95992.59;6373706;27;20403;-63
2022/01/07 00:14:36;;;;;;;;;;;;;;;-5.66;78.84;95995.16;6374069;27;19923;-63
2022/01/07 00:17:37;;;;;;;;;;;;;;;-5.59;78.83;95995.88;6373038;27;19930;-62
2022/01/07 00:20:39;;;;;;;;;;;;;;;-5.55;78.69;95989.81;6374176;27;19946;-62
2022/01/07 00:23:42;;;;;;;;;;;;;;;-5.56;79.03;95975.31;6374080;27;20335;-63
2022/01/07 00:26:45;;;;;;;;;;;;;;;-5.42;78.78;95978.50;6374000;27;20388;-63
2022/01/07 00:29:46;;;;;;;;;;;;;;;-5.42;78.82;95963.13;6373392;27;19923;-63
2022/01/07 00:32:47;;;;;;;;;;;;;;;-5.48;79.06;95958.09;6373820;27;19946;-62
2022/01/07 00:35:56;;;;;;;;;;;;;;;-5.40;79.03;95959.72;6373810;27;19923;-62
2022/01/07 00:38:58;;;;;;;;;;;;;;;-5.47;79.55;95944.41;6373686;27;19930;-62
2022/01/07 00:42:02;;;;;;;;;;;;;;;-5.35;78.94;95942.50;6372870;27;19923;-62
2022/01/07 00:45:05;;;;;;;;;;;;;;;-5.34;79.41;95933.97;6373747;27;19923;-61
2022/01/07 00:48:06;;;;;;;;;;;;;;;-5.36;79.50;95938.25;6373583;27;19956;-63
2022/01/07 00:51:10;;;;;;;;;;;;;;;-5.30;79.73;95925.31;6373470;27;19923;-62
2022/01/07 00:54:17;;;;;;;;;;;;;;;-5.41;80.36;95928.06;6373362;27;20392;-63
2022/01/07 00:57:19;;;;;;;;;;;;;;;-5.25;79.58;95913.28;6373220;27;20383;-63
2022/01/07 01:00:21;;;;;;;;;;;;;;;-5.37;80.21;95910.94;6372633;27;20467;-63
2022/01/07 01:03:23;;;;;;;;;;;;;;;-5.14;80.36;95913.09;6372405;27;20308;-62
2022/01/07 01:06:24;;;;;;;;;;;;;;;-5.07;80.41;95902.66;6373129;27;19923;-63
2022/01/07 01:09:27;;;;;;;;;;;;;;;-5.22;79.99;95913.22;6372984;27;20021;-63
2022/01/07 01:12:30;;;;;;;;;;;;;;;-4.96;79.88;95905.84;6372725;27;19927;-63
2022/01/07 01:15:32;;;;;;;;;;;;;;;-4.99;80.70;95895.66;6372196;27;20386;-62
2022/01/07 01:18:33;;;;;;;;;;;;;;;-4.97;80.32;95899.03;6372615;27;19923;-62
2022/01/07 01:21:35;;;;;;;;;;;;;;;-4.86;79.97;95896.28;6372549;27;19934;-63
2022/01/07 01:24:36;;;;;;;;;;;;;;;-4.81;79.91;95901.28;6372610;27;19923;-63
2022/01/07 01:27:40;;;;;;;;;;;;;;;-4.91;79.94;95892.94;6372768;27;19963;-62
2022/01/07 01:30:43;;;;;;;;;;;;;;;-4.80;79.93;95890.16;6372461;27;20022;-63
2022/01/07 01:33:45;;;;;;;;;;;;;;;-4.93;80.39;95873.31;6372261;27;20411;-63
2022/01/07 01:36:47;;;;;;;;;;;;;;;-4.96;80.69;95885.34;6372221;27;19923;-63
2022/01/07 01:39:50;;;;;;;;;;;;;;;-4.73;79.91;95886.59;6372402;27;19927;-62
2022/01/07 01:42:52;;;;;;;;;;;;;;;-4.62;79.54;95879.50;6371369;27;19931;-63
2022/01/07 01:45:53;;;;;;;;;;;;;;;-4.58;79.23;95886.28;6372143;27;19923;-63
2022/01/07 01:48:54;;;;;;;;;;;;;;;-4.59;79.41;95889.69;6371908;27;19984;-62
2022/01/07 01:51:57;;;;;;;;;;;;;;;-4.58;79.64;95870.88;6372211;27;19923;-63
2022/01/07 01:55:00;;;;;;;;;;;;;;;-4.55;79.60;95854.56;6371979;27;20029;-62
2022/01/07 01:58:02;;;;;;;;;;;;;;;-4.56;80.24;95842.59;6371695;27;19930;-61
2022/01/07 02:01:07;;;;;;;;;;;;;;;-4.56;79.97;95843.47;6371580;27;19928;-63
2022/01/07 02:04:11;;;;;;;;;;;;;;;-4.52;80.38;95829.66;6371855;27;19919;-62
2022/01/07 02:07:15;;;;;;;;;;;;;;;-4.47;80.20;95826.13;6371604;27;20341;-63
2022/01/07 02:10:19;;;;;;;;;;;;;;;-4.53;80.12;95827.97;6371642;27;19977;-63
2022/01/07 02:13:20;;;;;;;;;;;;;;;-4.48;80.19;95824.44;6371747;28;20312;-62
2022/01/07 02:16:23;;;;;;;;;;;;;;;-4.44;80.30;95836.34;6371264;28;19923;-63
2022/01/07 02:19:24;;;;;;;;;;;;;;;-4.36;80.75;95831.88;6370931;28;19930;-62
2022/01/07 02:22:26;;;;;;;;;;;;;;;-4.30;81.01;95837.72;6353028;28;20312;-63
2022/01/07 02:25:29;;;;;;;;;;;;;;;-4.33;80.83;95842.06;6372233;27;19923;-63
2022/01/07 02:28:33;;;;;;;;;;;;;;;-4.32;81.35;95842.03;6357902;27;20021;-63
2022/01/07 02:31:34;;;;;;;;;;;;;;;-4.23;81.27;95835.84;6376979;27;19930;-62
2022/01/07 02:34:37;;;;;;;;;;;;;;;-4.09;81.13;95849.19;6376827;27;20380;-61
2022/01/07 02:37:41;;;;;;;;;;;;;;;-4.03;81.02;95847.38;6376665;27;20385;-63
2022/01/07 02:40:42;;;;;;;;;;;;;;;-4.03;81.13;95842.22;6375686;27;19923;-62
2022/01/07 02:43:43;;;;;;;;;;;;;;;-3.88;80.79;95854.69;6376546;27;20060;-63
2022/01/07 02:46:45;;;;;;;;;;;;;;;-3.78;80.73;95851.03;6375731;27;19923;-62
2022/01/07 02:49:48;;;;;;;;;;;;;;;-3.78;80.56;95858.75;6375767;27;19923;-62
2022/01/07 02:52:51;;;;;;;;;;;;;;;-3.71;80.75;95850.00;6376265;27;19929;-63
2022/01/07 02:55:52;;;;;;;;;;;;;;;-3.71;81.25;95814.00;6375722;27;19973;-63
2022/01/07 02:58:55;;;;;;;;;;;;;;;-3.76;81.42;95820.16;6376266;27;19976;-63
2022/01/07 03:01:57;;;;;;;;;;;;;;;-3.66;81.66;95812.13;6375976;27;19931;-63
2022/01/07 03:05:00;;;;;;;;;;;;;;;-3.53;81.46;95796.41;6375752;27;19930;-63
2022/01/07 03:08:03;;;;;;;;;;;;;;;-3.46;81.68;95787.63;6375955;27;19931;-63
2022/01/07 03:11:04;;;;;;;;;;;;;;;-3.39;81.36;95778.88;6375614;27;20335;-62
2022/01/07 03:14:08;;;;;;;;;;;;;;;-3.31;82.17;95786.34;6375719;27;19935;-62
2022/01/07 03:17:11;;;;;;;;;;;;;;;-3.26;81.46;95782.78;6374935;27;19923;-62
2022/01/07 03:20:16;;;;;;;;;;;;;;;-3.18;81.44;95773.09;6375238;27;19923;-62
2022/01/07 03:23:19;;;;;;;;;;;;;;;-3.20;81.77;95769.75;6373766;28;19930;-62
2022/01/07 03:26:20;;;;;;;;;;;;;;;-3.13;81.54;95780.72;6371549;28;19996;-63
2022/01/07 03:29:21;;;;;;;;;;;;;;;-3.11;82.01;95778.06;6371951;28;20339;-62
2022/01/07 03:32:24;;;;;;;;;;;;;;;-2.93;81.91;95777.56;6373003;28;19952;-62
2022/01/07 03:35:25;;;;;;;;;;;;;;;-2.65;81.29;95763.84;6373765;28;19919;-62
2022/01/07 03:38:27;;;;;;;;;;;;;;;-2.67;81.58;95779.34;6373328;27;19950;-63
2022/01/07 03:41:28;;;;;;;;;;;;;;;-2.59;81.40;95786.84;6373597;28;19930;-63
2022/01/07 03:44:29;;;;;;;;;;;;;;;-2.65;81.41;95820.50;6372864;28;20402;-63
2022/01/07 03:47:30;;;;;;;;;;;;;;;-2.50;80.84;95791.69;6373418;28;19927;-63
2022/01/07 03:50:31;;;;;;;;;;;;;;;-2.43;81.31;95800.94;6373396;28;19923;-63
2022/01/07 03:53:32;;;;;;;;;;;;;;;-2.46;80.70;95803.59;6373442;28;19930;-63
2022/01/07 03:56:36;;;;;;;;;;;;;;;-2.49;80.31;95801.13;6372811;28;20381;-62
2022/01/07 03:59:37;;;;;;;;;;;;;;;-2.40;80.90;95812.88;6373135;28;19931;-62
2022/01/07 04:02:41;;;;;;;;;;;;;;;-2.31;80.47;95803.13;6372739;28;19946;-62
2022/01/07 04:05:42;;;;;;;;;;;;;;;-2.35;81.41;95811.84;6373151;28;19924;-63
2022/01/07 04:08:43;;;;;;;;;;;;;;;-2.28;80.88;95792.72;6373061;28;20003;-63
2022/01/07 04:11:44;;;;;;;;;;;;;;;-2.20;80.36;95789.91;6372588;28;20021;-63
2022/01/07 04:14:53;;;;;;;;;;;;;;;-2.45;80.95;95784.69;6372919;28;19930;-62
2022/01/07 04:17:57;;;;;;;;;;;;;;;-2.43;81.33;95788.06;6372975;28;20014;-63
2022/01/07 04:21:03;;;;;;;;;;;;;;;-2.19;80.62;95801.88;6270102;28;2149537;-62
2022/01/07 04:24:04;;;;;;;;;;;;;;;-2.12;80.88;95790.50;6347742;28;19931;-62
2022/01/07 04:27:05;;;;;;;;;;;;;;;-2.28;80.38;95790.13;6348006;28;20429;-65
2022/01/07 04:30:06;;;;;;;;;;;;;;;-2.20;80.38;95774.44;6348246;28;19967;-62
2022/01/07 04:33:09;;;;;;;;;;;;;;;-2.32;80.63;95786.00;6348487;28;19930;-63
2022/01/07 04:36:10;;;;;;;;;;;;;;;-2.36;80.45;95783.53;6347643;28;19924;-63
2022/01/07 04:39:11;;;;;;;;;;;;;;;-2.39;80.59;95773.34;6347943;28;20408;-62
2022/01/07 04:42:12;;;;;;;;;;;;;;;-2.47;81.03;95771.00;6348042;28;19924;-64
2022/01/07 04:45:14;;;;;;;;;;;;;;;-2.62;81.22;95776.63;6347955;28;19923;-62
2022/01/07 04:48:18;;;;;;;;;;;;;;;-2.81;82.32;95769.44;6345638;28;20303;-64
2022/01/07 04:51:19;;;;;;;;;;;;;;;-2.65;82.55;95777.56;6347643;28;19971;-63
2022/01/07 04:54:24;;;;;;;;;;;;;;;-2.56;82.26;95774.69;6347818;28;19923;-62
2022/01/07 04:57:28;;;;;;;;;;;;;;;-2.56;81.96;95785.00;6347680;28;19923;-62
2022/01/07 05:00:34;;;;;;;;;;;;;;;-2.49;82.49;95793.41;6347726;28;19924;-63
2022/01/07 05:03:35;;;;;;;;;;;;;;;-2.28;83.05;95789.31;6347237;27;19924;-62
2022/01/07 05:09:44;;;;;;;;;;;;;;;-2.43;83.12;95803.50;6346989;28;19951;-63
2022/01/07 05:12:46;;;;;;;;;;;;;;;-2.25;83.45;95796.94;6346295;28;19928;-63
2022/01/07 05:15:51;;;;;;;;;;;;;;;-2.21;83.77;95792.50;6347052;28;19931;-62
2022/01/07 05:18:52;;;;;;;;;;;;;;;-1.86;83.30;95794.78;6347844;28;20309;-63
2022/01/07 05:21:54;;;;;;;;;;;;;;;-1.52;83.62;95795.41;6365572;27;20304;-62
2022/01/07 05:24:58;;;;;;;;;;;;;;;-0.93;82.91;95808.75;6371827;27;19927;-62
2022/01/07 05:28:01;;;;;;;;;;;;;;;-0.46;81.39;95805.25;6372452;27;20440;-62
2022/01/07 05:31:04;;;;;;;;;;;;;;;-0.06;80.93;95816.63;6372368;27;19923;-63
2022/01/07 05:34:06;;;;;;;;;;;;;;;0.12;79.13;95820.22;6372162;27;19927;-63
2022/01/07 05:37:10;;;;;;;;;;;;;;;0.32;77.55;95816.81;6372029;27;20388;-62
2022/01/07 05:40:11;;;;;;;;;;;;;;;0.47;77.56;95820.50;6370943;27;19923;-63
2022/01/07 05:43:12;;;;;;;;;;;;;;;0.53;77.19;95809.91;6353567;27;20030;-63
2022/01/07 05:46:15;;;;;;;;;;;;;;;0.68;76.78;95814.44;6371971;27;20025;-62
2022/01/07 05:49:16;;;;;;;;;;;;;;;0.74;76.48;95803.81;6371541;27;20412;-62
2022/01/07 05:52:17;;;;;;;;;;;;;;;0.83;75.70;95808.59;6353537;27;19930;-63
2022/01/07 05:55:21;;;;;;;;;;;;;;;0.83;76.15;95824.13;6371702;27;20320;-63
2022/01/07 05:58:22;;;;;;;;;;;;;;;0.98;75.49;95811.41;6371779;27;19969;-63
2022/01/07 06:01:23;;;;;;;;;;;;;;;1.02;75.51;95802.59;6353181;27;20385;-62
2022/01/07 06:04:24;;;;;;;;;;;;;;;1.16;75.35;95813.22;6371251;27;19963;-62
2022/01/07 06:07:25;;;;;;;;;;;;;;;1.27;74.65;95803.16;6371732;27;19930;-63
2022/01/07 06:10:28;;;;;;;;;;;;;;;1.34;75.15;95811.53;6371094;27;19931;-63
2022/01/07 06:13:29;;;;;;;;;;;;;;;1.42;74.31;95798.22;6370986;28;19927;-63
2022/01/07 06:16:33;;;;;;;;;;;;;;;1.52;73.74;95820.22;6371442;28;19968;-64
2022/01/07 06:19:34;;;;;;;;;;;;;;;1.54;73.25;95805.44;6371544;28;19923;-63
2022/01/07 06:22:35;;;;;;;;;;;;;;;1.62;73.03;95808.50;6371316;28;19929;-64
2022/01/07 06:25:39;;;;;;;;;;;;;;;1.67;72.50;95811.75;6371480;28;20336;-66
2022/01/07 06:28:40;;;;;;;;;;;;;;;1.90;71.86;95808.06;6370746;28;20010;-64
2022/01/07 06:31:42;;;;;;;;;;;;;;;1.97;71.73;95808.59;6371240;28;20307;-66
2022/01/07 06:34:43;;;;;;;;;;;;;;;2.00;71.19;95826.59;6371266;28;19923;-69
2022/01/07 06:37:47;;;;;;;;;;;;;;;2.07;71.20;95825.41;6371078;28;19923;-70
2022/01/07 06:40:48;;;;;;;;;;;;;;;2.10;71.45;95819.25;6370416;28;19930;-69
2022/01/07 06:43:50;;;;;;;;;;;;;;;2.14;71.43;95811.22;6371463;28;20376;-69
2022/01/07 06:46:53;;;;;;;;;;;;;;;2.24;70.68;95802.06;6371433;28;20025;-70
2022/01/07 06:49:55;;;;;;;;;;;;;;;2.34;70.47;95801.63;6371218;28;19924;-68
2022/01/07 06:52:56;;;;;;;;;;;;;;;2.48;70.02;95801.75;6352644;28;20443;-70
2022/01/07 06:56:03;;;;;;;;;;;;;;;2.53;69.62;95798.94;6370920;28;19923;-69
2022/01/07 06:59:06;;;;;;;;;;;;;;;2.53;69.85;95797.19;6371093;28;19924;-69
2022/01/07 07:02:10;;;;;;;;;;;;;;;2.56;69.70;95799.63;6370664;28;20021;-68
2022/01/07 07:05:14;;;;;;;;;;;;;;;2.53;70.00;95798.94;6370943;28;19924;-67
2022/01/07 07:08:17;;;;;;;;;;;;;;;2.75;69.98;95809.94;6371047;28;19928;-64
2022/01/07 07:11:21;;;;;;;;;;;;;;;2.98;69.65;95803.56;6370676;27;19931;-64
2022/01/07 07:14:22;;;;;;;;;;;;;;;3.22;68.80;95801.41;6374872;27;20434;-65
2022/01/07 07:17:24;;;;;;;;;;;;;;;3.53;68.00;95810.19;6374666;27;19923;-67
2022/01/07 07:20:28;;;;;;;;;;;;;;;3.73;67.11;95801.28;6375708;27;19923;-69
2022/01/07 07:23:35;;;;;;;;;;;;;;;3.76;67.13;95798.50;6375513;27;19965;-70
2022/01/07 07:26:38;;;;;;;;;;;;;;;3.78;66.34;95796.69;6375261;27;19923;-70
2022/01/07 07:29:46;;;;;;;;;;;;;;;3.75;66.29;95796.84;6375071;27;19930;-70
2022/01/07 07:32:48;;;;;;;;;;;;;;;3.89;66.62;95785.69;6374014;27;19923;-70
2022/01/07 07:39:15;;;;;;;;;;;;;;;3.69;66.07;95789.38;6373890;27;20017;-69
2022/01/07 07:42:20;;;;;;;;;;;;;;;3.59;66.40;95778.63;6374496;27;19931;-69
2022/01/07 07:45:26;;;;;;;;;;;;;;;3.39;67.35;95774.50;6356919;27;19920;-67
2022/01/07 07:48:29;;;;;;;;;;;;;;;3.32;67.51;95775.78;6374726;27;20068;-69
2022/01/07 07:51:30;;;;;;;;;;;;;;;3.17;68.04;95776.56;6374000;27;19919;-68
2022/01/07 07:54:34;;;;;;;;;;;;;;;3.08;68.20;95783.94;6374453;27;20331;-68
2022/01/07 07:57:35;;;;;;;;;;;;;;;3.05;68.50;95778.91;6373846;27;20385;-68
2022/01/07 08:00:36;;;;;;;;;;;;;;;2.97;68.97;95770.66;6373880;27;19923;-68
2022/01/07 08:03:38;;;;;;;;;;;;;;;2.97;69.55;95762.88;6374397;27;19925;-68
2022/01/07 08:06:41;;;;;;;;;;;;;;;2.91;70.24;95771.00;6373683;27;20465;-68
2022/01/07 08:09:46;;;;;;;;;;;;;;;2.90;70.65;95779.72;6374268;27;19923;-68
2022/01/07 08:16:13;;;;;;;;;;;;;;;3.03;70.50;95772.09;6321775;27;19926;-67
2022/01/07 08:19:14;;;;;;;;;;;;;;;3.02;70.35;95757.44;6373392;27;19925;-67
2022/01/07 08:22:15;;;;;;;;;;;;;;;2.91;70.98;95760.59;6372879;27;19923;-66
2022/01/07 08:25:19;;;;;;;;;;;;;;;2.88;70.49;95745.19;6371879;27;19931;-65
2022/01/07 08:28:25;;;;;;;;;;;;;;;2.99;70.36;95742.84;6373521;27;20396;-65
2022/01/07 08:37:52;;;;;;;;;;;;;;;3.12;70.08;95779.44;6372508;27;19961;-64
2022/01/07 08:40:54;;;;;;;;;;;;;;;3.39;69.28;95766.72;6372946;27;20017;-64
2022/01/07 08:43:55;;;;;;;;;;;;;;;3.38;68.97;95758.06;6373570;27;19942;-64
2022/01/07 08:46:58;;;;;;;;;;;;;;;3.61;68.37;95750.78;6373419;27;19930;-64
2022/01/07 08:50:00;;;;;;;;;;;;;;;3.76;67.75;95749.91;6354526;27;19926;-64
2022/01/07 08:53:02;;;;;;;;;;;;;;;3.76;67.90;95743.88;6354772;27;19959;-64
2022/01/07 08:56:04;;;;;;;;;;;;;;;3.82;67.35;95746.13;6372832;27;20266;-64
2022/01/07 08:59:05;;;;;;;;;;;;;;;3.81;67.12;95747.91;6372893;27;19929;-62
2022/01/07 09:02:08;;;;;;;;;;;;;;;3.57;67.57;95741.47;6372897;27;19923;-63
2022/01/07 09:05:09;;;;;;;;;;;;;;;3.43;68.65;95757.84;6372198;27;19930;-63
2022/01/07 09:08:14;;;;;;;;;;;;;;;3.45;68.42;95775.94;6372016;27;19930;-62
2022/01/07 09:11:17;;;;;;;;;;;;;;;3.40;69.18;95760.59;6370755;27;19927;-63
2022/01/07 09:14:20;;;;;;;;;;;;;;;3.32;69.16;95765.38;6372902;27;19923;-63
2022/01/07 09:17:22;;;;;;;;;;;;;;;3.32;68.77;95767.97;6372055;27;19931;-63
2022/01/07 09:20:23;;;;;;;;;;;;;;;3.26;69.19;95776.13;6371869;27;20311;-63
2022/01/07 09:23:27;;;;;;;;;;;;;;;3.19;69.42;95764.34;6372846;27;19928;-63
2022/01/07 09:26:28;;;;;;;;;;;;;;;3.26;69.57;95776.13;6372606;27;19919;-63
2022/01/07 09:29:29;;;;;;;;;;;;;;;3.25;69.64;95759.66;6372450;27;20301;-62
2022/01/07 09:32:30;;;;;;;;;;;;;;;3.23;69.76;95750.25;6371415;27;20003;-63
2022/01/07 09:35:32;;;;;;;;;;;;;;;3.32;69.28;95753.22;6371535;27;20308;-63
2022/01/07 09:38:33;;;;;;;;;;;;;;;3.40;69.08;95762.34;6371132;27;19931;-63
2022/01/07 09:41:34;;;;;;;;;;;;;;;3.40;68.79;95768.41;6371257;27;20014;-63
2022/01/07 09:44:38;;;;;;;;;;;;;;;3.28;69.33;95766.44;6370834;27;19930;-63
2022/01/07 09:47:42;;;;;;;;;;;;;;;3.40;68.81;95778.81;6372424;27;19923;-64
2022/01/07 09:50:46;;;;;;;;;;;;;;;3.22;69.26;95784.97;6371589;27;20048;-62
2022/01/07 09:53:47;;;;;;;;;;;;;;;3.23;69.58;95776.25;6371232;27;19923;-64
2022/01/07 09:56:51;;;;;;;;;;;;;;;3.17;69.59;95755.78;6371465;27;20303;-63
2022/01/07 09:59:55;;;;;;;;;;;;;;;3.36;69.67;95772.91;6371692;27;19930;-64
2022/01/07 10:03:00;;;;;;;;;;;;;;;3.28;69.55;95774.25;6370689;27;20006;-64
2022/01/07 10:06:01;;;;;;;;;;;;;;;3.31;69.52;95753.28;6371749;27;19923;-64
2022/01/07 10:09:07;;;;;;;;;;;;;;;3.15;69.76;95751.53;6371853;27;19930;-64
2022/01/07 10:12:08;;;;;;;;;;;;;;;3.29;69.42;95761.19;6370783;27;20008;-64
2022/01/07 10:15:11;;;;;;;;;;;;;;;3.34;69.16;95732.31;6370865;28;19929;-64
2022/01/07 10:18:12;;;;;;;;;;;;;;;3.34;69.57;95740.13;6370542;28;19923;-64
2022/01/07 10:21:17;;;;;;;;;;;;;;;3.35;69.18;95721.00;6371636;28;19927;-64
2022/01/07 10:24:21;;;;;;;;;;;;;;;3.48;69.44;95697.75;6370806;28;20406;-63
2022/01/07 10:27:26;;;;;;;;;;;;;;;3.26;69.83;95716.31;6371015;28;20021;-63
2022/01/07 10:30:35;;;;;;;;;;;;;;;3.13;70.53;95724.75;6371104;28;19930;-64
2022/01/07 10:33:36;;;;;;;;;;;;;;;3.15;70.57;95716.91;6371140;28;20315;-64
2022/01/07 10:36:40;;;;;;;;;;;;;;;3.02;70.57;95711.50;6370567;28;19924;-64
2022/01/07 10:39:43;;;;;;;;;;;;;;;3.02;70.91;95706.31;6371291;28;19923;-65
2022/01/07 10:42:44;;;;;;;;;;;;;;;3.05;70.80;95718.28;6371480;28;20336;-63
2022/01/07 10:45:53;;;;;;;;;;;;;;;2.94;71.26;95713.66;6371249;27;20389;-63
2022/01/07 10:48:56;;;;;;;;;;;;;;;2.82;71.54;95729.91;6376095;27;19927;-63
2022/01/07 10:52:00;;;;;;;;;;;;;;;2.76;72.11;95730.25;6375433;27;20004;-63
2022/01/07 10:55:09;;;;;;;;;;;;;;;2.73;72.41;95720.00;6376458;27;20398;-64
2022/01/07 10:58:10;;;;;;;;;;;;;;;2.80;72.23;95734.34;6375047;27;19946;-63
2022/01/07 11:01:20;;;;;;;;;;;;;;;2.79;72.57;95719.69;6375623;27;19931;-64
2022/01/07 11:04:26;;;;;;;;;;;;;;;2.77;72.22;95719.75;6375832;27;20257;-64
2022/01/07 11:07:29;;;;;;;;;;;;;;;2.69;72.33;95725.38;6374748;27;20509;-66
2022/01/07 11:10:36;;;;;;;;;;;;;;;2.76;72.22;95725.88;6375670;27;20396;-63
2022/01/07 11:13:42;;;;;;;;;;;;;;;2.68;72.90;95744.44;6375547;27;20300;-64
2022/01/07 11:16:43;;;;;;;;;;;;;;;2.72;72.68;95733.91;6375300;27;19930;-63
2022/01/07 11:19:49;;;;;;;;;;;;;;;2.70;73.03;95736.59;6374678;27;19931;-64
2022/01/07 11:22:51;;;;;;;;;;;;;;;2.78;72.92;95728.41;6374953;27;20039;-64
2022/01/07 11:26:03;;;;;;;;;;;;;;;2.75;73.25;95736.38;6375399;27;19927;-63
2022/01/07 11:29:06;;;;;;;;;;;;;;;2.74;73.20;95726.88;6374174;27;20320;-64
2022/01/07 11:32:26;;;;;;;;;;;;;;;2.79;73.12;95735.28;6373486;27;19930;-64
2022/01/07 11:35:27;;;;;;;;;;;;;;;2.74;73.41;95732.06;6374868;27;19923;-64
2022/01/07 11:38:32;;;;;;;;;;;;;;;2.70;73.76;95737.44;6374679;27;19927;-64
2022/01/07 11:42:07;;;;;;;;;;;;;;;2.67;74.04;95741.94;6373762;27;20303;-63
2022/01/07 11:45:26;;;;;;;;;;;;;;;2.67;74.52;95737.59;6320059;27;19923;-63
2022/01/07 11:48:37;;;;;;;;;;;;;;;2.76;74.31;95730.25;6373869;27;19930;-65
2022/01/07 11:51:40;;;;;;;;;;;;;;;2.85;74.22;95740.16;6374640;27;19923;-64
2022/01/07 11:54:41;;;;;;;;;;;;;;;2.80;74.70;95742.13;6356212;27;19924;-63
2022/01/07 11:57:52;;;;;;;;;;;;;;;2.77;74.58;95730.13;6374190;27;20312;-64
2022/01/07 12:00:54;;;;;;;;;;;;;;;2.84;74.57;95738.47;6374597;27;19923;-64
2022/01/07 12:03:58;;;;;;;;;;;;;;;2.82;74.56;95729.91;6355787;27;19930;-65
2022/01/07 12:07:01;;;;;;;;;;;;;;;2.85;74.08;95724.56;6374262;27;19923;-64
2022/01/07 12:10:11;;;;;;;;;;;;;;;2.81;74.55;95713.50;6373295;27;19950;-64
2022/01/07 12:13:12;;;;;;;;;;;;;;;2.83;74.37;95705.59;6374134;27;20396;-64
2022/01/07 12:16:30;;;;;;;;;;;;;;;2.79;74.25;95720.53;6374019;27;20369;-63
2022/01/07 12:19:31;;;;;;;;;;;;;;;2.82;74.48;95703.94;6374100;27;19942;-63
2022/01/07 12:22:34;;;;;;;;;;;;;;;2.81;74.39;95702.28;6373850;27;19998;-65
2022/01/07 12:25:35;;;;;;;;;;;;;;;2.84;73.97;95702.09;6373140;27;19933;-63
2022/01/07 12:28:48;;;;;;;;;;;;;;;2.78;73.95;95712.81;6374349;27;19924;-62
2022/01/07 12:31:54;;;;;;;;;;;;;;;2.81;73.79;95717.84;6373831;27;20412;-63
2022/01/07 12:34:58;;;;;;;;;;;;;;;2.81;73.83;95718.69;6373097;27;20004;-66
2022/01/07 12:37:59;;;;;;;;;;;;;;;2.83;73.56;95706.47;6373147;27;19930;-64
2022/01/07 12:41:01;;;;;;;;;;;;;;;2.85;73.58;95709.81;6373288;27;20466;-63
2022/01/07 12:44:06;;;;;;;;;;;;;;;2.68;74.02;95695.09;6373085;27;19927;-63
2022/01/07 12:47:09;;;;;;;;;;;;;;;2.69;74.15;95694.19;6372833;27;19924;-65
2022/01/07 12:50:11;;;;;;;;;;;;;;;2.68;73.89;95691.66;6372567;27;20057;-64
2022/01/07 12:53:12;;;;;;;;;;;;;;;2.60;74.32;95676.47;6372111;27;19938;-64
2022/01/07 12:56:20;;;;;;;;;;;;;;;2.51;74.67;95669.19;6372969;27;20475;-64
2022/01/07 12:59:24;;;;;;;;;;;;;;;2.53;74.64;95664.75;6372468;27;20408;-63
2022/01/07 13:02:27;;;;;;;;;;;;;;;2.56;74.55;95638.63;6372616;27;19923;-63
2022/01/07 13:05:30;;;;;;;;;;;;;;;2.49;74.63;95650.25;6371875;27;19950;-64
2022/01/07 13:08:34;;;;;;;;;;;;;;;2.40;74.80;95611.78;6372817;27;19923;-64
2022/01/07 13:11:35;;;;;;;;;;;;;;;2.39;75.09;95638.69;6371621;27;19931;-64
2022/01/07 13:14:45;;;;;;;;;;;;;;;2.33;75.16;95634.66;6371414;27;19996;-64
2022/01/07 13:17:54;;;;;;;;;;;;;;;2.32;75.59;95621.72;6372492;27;19923;-64
2022/01/07 13:21:10;;;;;;;;;;;;;;;2.31;75.59;95633.03;6372327;27;19930;-63
2022/01/07 13:24:17;;;;;;;;;;;;;;;2.15;76.15;95641.63;6372772;27;19924;-63
2022/01/07 13:27:18;;;;;;;;;;;;;;;2.08;76.66;95640.25;6372613;27;20350;-64
2022/01/07 13:30:32;;;;;;;;;;;;;;;2.03;77.11;95631.84;6372366;27;19945;-63
2022/01/07 13:33:36;;;;;;;;;;;;;;;1.87;77.66;95636.16;6372408;27;19919;-63
2022/01/07 13:36:37;;;;;;;;;;;;;;;1.87;78.33;95638.72;6371554;27;19923;-64
2022/01/07 13:39:46;;;;;;;;;;;;;;;1.84;78.51;95638.88;6371944;27;19942;-64
2022/01/07 13:42:47;;;;;;;;;;;;;;;1.91;78.85;95629.91;6371280;27;20013;-63
2022/01/07 13:45:50;;;;;;;;;;;;;;;1.93;78.89;95628.06;6372103;27;20018;-65
2022/01/07 13:49:06;;;;;;;;;;;;;;;2.03;78.93;95629.28;6372128;27;20339;-63
2022/01/07 13:52:09;;;;;;;;;;;;;;;2.08;78.38;95642.84;6371112;27;20315;-64
2022/01/07 13:55:23;;;;;;;;;;;;;;;2.12;78.31;95621.00;6371823;27;19923;-65
2022/01/07 13:58:24;;;;;;;;;;;;;;;2.17;78.35;95644.97;6371231;27;20007;-65
2022/01/07 14:01:27;;;;;;;;;;;;;;;2.18;78.55;95625.91;6371894;27;20022;-64
2022/01/07 14:04:49;;;;;;;;;;;;;;;2.17;78.66;95623.38;6371950;27;19923;-64
2022/01/07 14:07:55;;;;;;;;;;;;;;;2.06;79.02;95608.34;6371078;27;20304;-64
2022/01/07 14:11:10;;;;;;;;;;;;;;;2.05;78.94;95619.66;6371525;27;20304;-64
2022/01/07 14:14:11;;;;;;;;;;;;;;;2.10;78.87;95607.28;6370346;28;19927;-64
2022/01/07 14:17:17;;;;;;;;;;;;;;;2.04;79.24;95607.63;6371100;28;20412;-64
2022/01/07 14:20:18;;;;;;;;;;;;;;;2.10;79.16;95612.47;6371389;27;19923;-64
2022/01/07 14:23:21;;;;;;;;;;;;;;;2.07;79.07;95602.25;6376960;27;19923;-63
2022/01/07 14:26:25;;;;;;;;;;;;;;;2.05;79.52;95582.50;6375624;27;19926;-63
2022/01/07 14:29:26;;;;;;;;;;;;;;;2.00;79.61;95593.09;6375742;27;20398;-63
2022/01/07 14:32:29;;;;;;;;;;;;;;;1.94;79.20;95585.66;6376363;27;19919;-64
2022/01/07 14:35:30;;;;;;;;;;;;;;;1.97;79.26;95583.72;6376309;27;19923;-63
2022/01/07 14:38:31;;;;;;;;;;;;;;;1.95;79.00;95582.13;6375619;27;20305;-64
2022/01/07 14:41:37;;;;;;;;;;;;;;;1.75;79.74;95586.56;6358391;27;20006;-63
2022/01/07 14:44:38;;;;;;;;;;;;;;;1.80;79.82;95569.03;6375776;27;19977;-64
2022/01/07 14:47:40;;;;;;;;;;;;;;;1.84;80.09;95579.25;6375661;27;19923;-65
2022/01/07 14:50:44;;;;;;;;;;;;;;;1.76;80.08;95588.25;6375218;27;19923;-64
2022/01/07 14:53:45;;;;;;;;;;;;;;;1.76;80.60;95570.09;6374327;27;19930;-64
2022/01/07 14:56:48;;;;;;;;;;;;;;;1.82;79.96;95570.72;6376233;27;19924;-63
2022/01/07 14:59:52;;;;;;;;;;;;;;;1.84;80.07;95554.16;6374919;27;19988;-64
2022/01/07 15:02:53;;;;;;;;;;;;;;;1.82;80.00;95550.81;6375982;27;19923;-64
2022/01/07 15:05:54;;;;;;;;;;;;;;;1.75;80.42;95560.63;6375650;27;19924;-64
2022/01/07 15:08:56;;;;;;;;;;;;;;;1.86;80.00;95564.44;6375731;27;19923;-63
2022/01/07 15:11:57;;;;;;;;;;;;;;;1.78;80.04;95550.13;6374683;27;20385;-63
2022/01/07 15:14:58;;;;;;;;;;;;;;;1.77;80.31;95553.63;6374804;27;19932;-66
2022/01/07 15:18:00;;;;;;;;;;;;;;;1.65;80.30;95543.88;6357152;27;19923;-64
2022/01/07 15:21:01;;;;;;;;;;;;;;;1.76;80.39;95531.22;6375185;27;19923;-64
2022/01/07 15:24:07;;;;;;;;;;;;;;;1.70;80.21;95526.34;6375272;27;19930;-64
2022/01/07 15:27:09;;;;;;;;;;;;;;;1.68;80.68;95507.44;6374662;27;19923;-64
2022/01/07 15:30:10;;;;;;;;;;;;;;;1.66;80.32;95503.22;6375256;27;19923;-65
2022/01/07 15:33:11;;;;;;;;;;;;;;;1.69;80.59;95497.88;6339223;27;19923;-65
2022/01/07 15:36:12;;;;;;;;;;;;;;;1.74;80.03;95491.53;6374426;27;19966;-66
2022/01/07 15:39:15;;;;;;;;;;;;;;;1.55;80.36;95498.59;6374357;27;20320;-66
2022/01/07 15:42:19;;;;;;;;;;;;;;;1.59;80.94;95486.34;6374973;27;19927;-65
2022/01/07 15:45:20;;;;;;;;;;;;;;;1.60;81.13;95467.25;6374457;27;19923;-64
2022/01/07 15:48:21;;;;;;;;;;;;;;;1.52;81.09;95470.25;6373896;27;20400;-66
2022/01/07 15:51:30;;;;;;;;;;;;;;;1.52;81.01;95470.25;6373667;27;20022;-64
2022/01/07 15:54:31;;;;;;;;;;;;;;;1.53;81.43;95451.19;6373707;27;19924;-64
2022/01/07 15:57:37;;;;;;;;;;;;;;;1.57;81.09;95437.97;6374712;27;19963;-63
2022/01/07 16:00:40;;;;;;;;;;;;;;;1.53;81.00;95436.47;6374377;27;19923;-65
2022/01/07 16:03:44;;;;;;;;;;;;;;;1.55;81.27;95439.81;6373790;27;20208;-64
2022/01/07 16:06:48;;;;;;;;;;;;;;;1.54;81.14;95448.50;6373963;27;19923;-64
2022/01/07 16:09:49;;;;;;;;;;;;;;;1.37;81.26;95432.16;6373558;27;19930;-64
2022/01/07 16:12:50;;;;;;;;;;;;;;;1.38;81.68;95451.97;6374375;27;20411;-64
2022/01/07 16:15:53;;;;;;;;;;;;;;;1.41;81.40;95428.47;6374208;27;19923;-64
2022/01/07 16:18:57;;;;;;;;;;;;;;;1.41;82.24;95399.97;6372978;27;19924;-64